sensor_id;sensor_type;location;lat;lon;timestamp;P1;durP1;ratioP1;P2;durP2;ratioP2
78122;SDS011;67376;44.802;10.332;2023-12-14T00:01:25;7.28;;;4.53;;
78122;SDS011;67376;44.802;10.332;2023-12-14T00:03:51;7.22;;;4.93;;
78122;SDS011;67376;44.802;10.332;2023-12-14T00:06:16;7.70;;;5.25;;
78122;SDS011;67376;44.802;10.332;2023-12-14T00:08:41;8.73;;;5.05;;
78122;SDS011;67376;44.802;10.332;2023-12-14T00:11:08;7.47;;;4.80;;
78122;SDS011;67376;44.802;10.332;2023-12-14T00:13:35;10.57;;;5.07;;
78122;SDS011;67376;44.802;10.332;2023-12-14T00:16:01;9.98;;;5.15;;
78122;SDS011;67376;44.802;10.332;2023-12-14T00:18:27;9.27;;;4.85;;
78122;SDS011;67376;44.802;10.332;2023-12-14T00:20:52;7.85;;;4.80;;
78122;SDS011;67376;44.802;10.332;2023-12-14T00:23:19;7.38;;;4.32;;
78122;SDS011;67376;44.802;10.332;2023-12-14T00:25:44;7.57;;;4.53;;
78122;SDS011;67376;44.802;10.332;2023-12-14T00:28:10;9.23;;;5.05;;
78122;SDS011;67376;44.802;10.332;2023-12-14T00:30:35;8.02;;;4.78;;
78122;SDS011;67376;44.802;10.332;2023-12-14T00:33:00;7.40;;;4.65;;
78122;SDS011;67376;44.802;10.332;2023-12-14T00:35:26;7.78;;;5.00;;
78122;SDS011;67376;44.802;10.332;2023-12-14T00:37:51;7.68;;;4.93;;
78122;SDS011;67376;44.802;10.332;2023-12-14T00:40:16;7.50;;;4.45;;
78122;SDS011;67376;44.802;10.332;2023-12-14T00:42:42;7.13;;;5.20;;
78122;SDS011;67376;44.802;10.332;2023-12-14T00:45:07;7.13;;;4.55;;
78122;SDS011;67376;44.802;10.332;2023-12-14T00:47:33;7.07;;;5.20;;
78122;SDS011;67376;44.802;10.332;2023-12-14T00:49:58;7.45;;;5.05;;
78122;SDS011;67376;44.802;10.332;2023-12-14T00:52:24;7.57;;;4.88;;
78122;SDS011;67376;44.802;10.332;2023-12-14T00:54:49;8.68;;;5.18;;
78122;SDS011;67376;44.802;10.332;2023-12-14T00:57:15;9.40;;;5.93;;
78122;SDS011;67376;44.802;10.332;2023-12-14T00:59:40;12.15;;;4.88;;
78122;SDS011;67376;44.802;10.332;2023-12-14T01:02:06;6.85;;;4.47;;
78122;SDS011;67376;44.802;10.332;2023-12-14T01:04:31;6.95;;;4.65;;
78122;SDS011;67376;44.802;10.332;2023-12-14T01:06:57;8.48;;;5.13;;
78122;SDS011;67376;44.802;10.332;2023-12-14T01:09:22;6.57;;;4.47;;
78122;SDS011;67376;44.802;10.332;2023-12-14T01:11:48;7.03;;;4.55;;
78122;SDS011;67376;44.802;10.332;2023-12-14T01:14:13;7.18;;;4.70;;
78122;SDS011;67376;44.802;10.332;2023-12-14T01:16:38;7.05;;;4.60;;
78122;SDS011;67376;44.802;10.332;2023-12-14T01:19:04;7.00;;;4.85;;
78122;SDS011;67376;44.802;10.332;2023-12-14T01:21:31;9.45;;;4.82;;
78122;SDS011;67376;44.802;10.332;2023-12-14T01:23:56;6.32;;;4.50;;
78122;SDS011;67376;44.802;10.332;2023-12-14T01:26:22;6.70;;;4.75;;
78122;SDS011;67376;44.802;10.332;2023-12-14T01:28:47;7.25;;;4.82;;
78122;SDS011;67376;44.802;10.332;2023-12-14T01:31:12;6.53;;;4.65;;
78122;SDS011;67376;44.802;10.332;2023-12-14T01:33:38;7.63;;;4.65;;
78122;SDS011;67376;44.802;10.332;2023-12-14T01:36:03;7.75;;;5.70;;
78122;SDS011;67376;44.802;10.332;2023-12-14T01:38:29;7.78;;;5.10;;
78122;SDS011;67376;44.802;10.332;2023-12-14T01:40:54;5.95;;;4.45;;
78122;SDS011;67376;44.802;10.332;2023-12-14T01:43:21;6.57;;;4.47;;
78122;SDS011;67376;44.802;10.332;2023-12-14T01:45:47;8.32;;;5.22;;
78122;SDS011;67376;44.802;10.332;2023-12-14T01:48:12;7.18;;;5.05;;
78122;SDS011;67376;44.802;10.332;2023-12-14T01:50:37;7.53;;;4.78;;
78122;SDS011;67376;44.802;10.332;2023-12-14T01:53:03;6.82;;;4.57;;
78122;SDS011;67376;44.802;10.332;2023-12-14T01:55:29;6.90;;;5.20;;
78122;SDS011;67376;44.802;10.332;2023-12-14T01:57:54;6.45;;;4.85;;
78122;SDS011;67376;44.802;10.332;2023-12-14T02:01:05;6.88;;;4.93;;
78122;SDS011;67376;44.802;10.332;2023-12-14T02:03:19;6.53;;;4.80;;
78122;SDS011;67376;44.802;10.332;2023-12-14T02:05:45;7.32;;;4.47;;
78122;SDS011;67376;44.802;10.332;2023-12-14T02:08:11;7.63;;;5.10;;
78122;SDS011;67376;44.802;10.332;2023-12-14T02:10:36;7.30;;;4.70;;
78122;SDS011;67376;44.802;10.332;2023-12-14T02:13:02;7.55;;;4.78;;
78122;SDS011;67376;44.802;10.332;2023-12-14T02:15:28;6.75;;;4.60;;
78122;SDS011;67376;44.802;10.332;2023-12-14T02:17:53;8.82;;;5.00;;
78122;SDS011;67376;44.802;10.332;2023-12-14T02:20:18;8.77;;;4.70;;
78122;SDS011;67376;44.802;10.332;2023-12-14T02:22:53;7.95;;;4.90;;
78122;SDS011;67376;44.802;10.332;2023-12-14T02:25:19;7.25;;;4.55;;
78122;SDS011;67376;44.802;10.332;2023-12-14T02:27:45;6.75;;;4.60;;
78122;SDS011;67376;44.802;10.332;2023-12-14T02:30:11;7.22;;;4.88;;
78122;SDS011;67376;44.802;10.332;2023-12-14T02:32:37;7.60;;;4.88;;
78122;SDS011;67376;44.802;10.332;2023-12-14T02:35:03;5.95;;;4.25;;
78122;SDS011;67376;44.802;10.332;2023-12-14T02:37:29;6.90;;;4.82;;
78122;SDS011;67376;44.802;10.332;2023-12-14T02:39:55;6.70;;;4.68;;
78122;SDS011;67376;44.802;10.332;2023-12-14T02:42:20;7.25;;;5.07;;
78122;SDS011;67376;44.802;10.332;2023-12-14T02:44:46;6.38;;;4.50;;
78122;SDS011;67376;44.802;10.332;2023-12-14T02:47:11;8.18;;;5.32;;
78122;SDS011;67376;44.802;10.332;2023-12-14T02:49:37;7.03;;;4.35;;
78122;SDS011;67376;44.802;10.332;2023-12-14T02:52:02;6.97;;;4.75;;
78122;SDS011;67376;44.802;10.332;2023-12-14T02:54:27;7.00;;;5.00;;
78122;SDS011;67376;44.802;10.332;2023-12-14T02:56:53;7.05;;;4.40;;
78122;SDS011;67376;44.802;10.332;2023-12-14T02:59:18;6.72;;;4.57;;
78122;SDS011;67376;44.802;10.332;2023-12-14T03:01:43;5.35;;;4.07;;
78122;SDS011;67376;44.802;10.332;2023-12-14T03:04:09;8.23;;;5.25;;
78122;SDS011;67376;44.802;10.332;2023-12-14T03:06:34;6.68;;;4.32;;
78122;SDS011;67376;44.802;10.332;2023-12-14T03:09:00;7.13;;;5.18;;
78122;SDS011;67376;44.802;10.332;2023-12-14T03:11:25;5.82;;;4.13;;
78122;SDS011;67376;44.802;10.332;2023-12-14T03:13:50;7.88;;;4.70;;
78122;SDS011;67376;44.802;10.332;2023-12-14T03:16:16;6.70;;;4.68;;
78122;SDS011;67376;44.802;10.332;2023-12-14T03:18:42;5.57;;;4.22;;
78122;SDS011;67376;44.802;10.332;2023-12-14T03:21:08;8.48;;;4.63;;
78122;SDS011;67376;44.802;10.332;2023-12-14T03:23:34;7.53;;;4.60;;
78122;SDS011;67376;44.802;10.332;2023-12-14T03:26:00;7.50;;;5.15;;
78122;SDS011;67376;44.802;10.332;2023-12-14T03:28:26;6.60;;;4.47;;
78122;SDS011;67376;44.802;10.332;2023-12-14T03:30:51;6.80;;;4.80;;
78122;SDS011;67376;44.802;10.332;2023-12-14T03:33:17;7.85;;;4.47;;
78122;SDS011;67376;44.802;10.332;2023-12-14T03:35:42;6.47;;;4.22;;
78122;SDS011;67376;44.802;10.332;2023-12-14T03:38:08;8.27;;;4.22;;
78122;SDS011;67376;44.802;10.332;2023-12-14T03:40:34;6.50;;;4.70;;
78122;SDS011;67376;44.802;10.332;2023-12-14T03:42:59;7.18;;;4.35;;
78122;SDS011;67376;44.802;10.332;2023-12-14T03:45:24;7.45;;;4.40;;
78122;SDS011;67376;44.802;10.332;2023-12-14T03:47:50;7.18;;;4.50;;
78122;SDS011;67376;44.802;10.332;2023-12-14T03:50:15;6.75;;;4.40;;
78122;SDS011;67376;44.802;10.332;2023-12-14T03:52:41;6.28;;;4.15;;
78122;SDS011;67376;44.802;10.332;2023-12-14T03:55:06;6.30;;;4.30;;
78122;SDS011;67376;44.802;10.332;2023-12-14T03:57:32;6.93;;;4.47;;
78122;SDS011;67376;44.802;10.332;2023-12-14T03:59:57;5.95;;;4.30;;
78122;SDS011;67376;44.802;10.332;2023-12-14T04:02:22;6.85;;;5.00;;
78122;SDS011;67376;44.802;10.332;2023-12-14T04:04:48;6.55;;;4.30;;
78122;SDS011;67376;44.802;10.332;2023-12-14T04:07:13;8.15;;;4.85;;
78122;SDS011;67376;44.802;10.332;2023-12-14T04:09:39;5.95;;;4.65;;
78122;SDS011;67376;44.802;10.332;2023-12-14T04:12:05;7.38;;;4.97;;
78122;SDS011;67376;44.802;10.332;2023-12-14T04:14:30;7.63;;;4.93;;
78122;SDS011;67376;44.802;10.332;2023-12-14T04:16:56;6.05;;;4.00;;
78122;SDS011;67376;44.802;10.332;2023-12-14T04:19:21;8.18;;;5.07;;
78122;SDS011;67376;44.802;10.332;2023-12-14T04:21:47;6.28;;;4.57;;
78122;SDS011;67376;44.802;10.332;2023-12-14T04:24:12;6.45;;;4.57;;
78122;SDS011;67376;44.802;10.332;2023-12-14T04:26:38;7.60;;;4.57;;
78122;SDS011;67376;44.802;10.332;2023-12-14T04:29:04;7.05;;;4.43;;
78122;SDS011;67376;44.802;10.332;2023-12-14T04:31:30;10.63;;;5.05;;
78122;SDS011;67376;44.802;10.332;2023-12-14T04:33:56;6.90;;;4.65;;
78122;SDS011;67376;44.802;10.332;2023-12-14T04:36:22;7.40;;;4.63;;
78122;SDS011;67376;44.802;10.332;2023-12-14T04:38:47;8.07;;;5.07;;
78122;SDS011;67376;44.802;10.332;2023-12-14T04:41:13;8.10;;;4.55;;
78122;SDS011;67376;44.802;10.332;2023-12-14T04:43:38;8.48;;;4.90;;
78122;SDS011;67376;44.802;10.332;2023-12-14T04:46:04;7.20;;;4.53;;
78122;SDS011;67376;44.802;10.332;2023-12-14T04:48:31;7.40;;;4.85;;
78122;SDS011;67376;44.802;10.332;2023-12-14T04:50:56;7.78;;;5.05;;
78122;SDS011;67376;44.802;10.332;2023-12-14T04:53:21;7.85;;;4.60;;
78122;SDS011;67376;44.802;10.332;2023-12-14T04:55:47;7.13;;;4.82;;
78122;SDS011;67376;44.802;10.332;2023-12-14T04:58:12;6.95;;;4.57;;
78122;SDS011;67376;44.802;10.332;2023-12-14T05:00:37;7.35;;;5.32;;
78122;SDS011;67376;44.802;10.332;2023-12-14T05:03:03;7.13;;;4.60;;
78122;SDS011;67376;44.802;10.332;2023-12-14T05:05:28;6.63;;;4.80;;
78122;SDS011;67376;44.802;10.332;2023-12-14T05:07:53;7.45;;;4.57;;
78122;SDS011;67376;44.802;10.332;2023-12-14T05:10:19;8.32;;;5.07;;
78122;SDS011;67376;44.802;10.332;2023-12-14T05:12:45;7.22;;;4.75;;
78122;SDS011;67376;44.802;10.332;2023-12-14T05:15:10;8.48;;;5.10;;
78122;SDS011;67376;44.802;10.332;2023-12-14T05:17:36;7.80;;;5.10;;
78122;SDS011;67376;44.802;10.332;2023-12-14T05:20:02;6.50;;;4.22;;
78122;SDS011;67376;44.802;10.332;2023-12-14T05:22:29;6.65;;;4.70;;
78122;SDS011;67376;44.802;10.332;2023-12-14T05:24:54;7.28;;;4.70;;
78122;SDS011;67376;44.802;10.332;2023-12-14T05:27:19;7.78;;;4.75;;
78122;SDS011;67376;44.802;10.332;2023-12-14T05:29:45;8.82;;;4.63;;
78122;SDS011;67376;44.802;10.332;2023-12-14T05:32:10;7.47;;;5.15;;
78122;SDS011;67376;44.802;10.332;2023-12-14T05:34:36;8.57;;;5.18;;
78122;SDS011;67376;44.802;10.332;2023-12-14T05:37:01;6.78;;;4.75;;
78122;SDS011;67376;44.802;10.332;2023-12-14T05:39:27;8.57;;;5.25;;
78122;SDS011;67376;44.802;10.332;2023-12-14T05:41:52;8.38;;;4.53;;
78122;SDS011;67376;44.802;10.332;2023-12-14T05:44:17;7.07;;;4.85;;
78122;SDS011;67376;44.802;10.332;2023-12-14T05:46:43;7.15;;;4.80;;
78122;SDS011;67376;44.802;10.332;2023-12-14T05:49:08;8.27;;;5.82;;
78122;SDS011;67376;44.802;10.332;2023-12-14T05:51:34;6.75;;;4.90;;
78122;SDS011;67376;44.802;10.332;2023-12-14T05:54:00;7.03;;;4.60;;
78122;SDS011;67376;44.802;10.332;2023-12-14T05:56:25;7.03;;;4.35;;
78122;SDS011;67376;44.802;10.332;2023-12-14T05:58:51;6.47;;;4.53;;
78122;SDS011;67376;44.802;10.332;2023-12-14T06:01:17;7.22;;;4.90;;
78122;SDS011;67376;44.802;10.332;2023-12-14T06:03:43;6.80;;;4.65;;
78122;SDS011;67376;44.802;10.332;2023-12-14T06:06:09;7.35;;;4.57;;
78122;SDS011;67376;44.802;10.332;2023-12-14T06:08:34;8.10;;;4.90;;
78122;SDS011;67376;44.802;10.332;2023-12-14T06:11:00;8.13;;;4.28;;
78122;SDS011;67376;44.802;10.332;2023-12-14T06:13:25;7.22;;;4.50;;
78122;SDS011;67376;44.802;10.332;2023-12-14T06:15:50;6.22;;;4.22;;
78122;SDS011;67376;44.802;10.332;2023-12-14T06:18:16;8.23;;;4.68;;
78122;SDS011;67376;44.802;10.332;2023-12-14T06:20:42;8.07;;;4.80;;
78122;SDS011;67376;44.802;10.332;2023-12-14T06:23:07;6.60;;;4.72;;
78122;SDS011;67376;44.802;10.332;2023-12-14T06:25:32;7.80;;;4.35;;
78122;SDS011;67376;44.802;10.332;2023-12-14T06:27:58;7.60;;;4.15;;
78122;SDS011;67376;44.802;10.332;2023-12-14T06:30:23;6.70;;;4.55;;
78122;SDS011;67376;44.802;10.332;2023-12-14T06:32:48;9.70;;;5.05;;
78122;SDS011;67376;44.802;10.332;2023-12-14T06:35:14;8.68;;;4.32;;
78122;SDS011;67376;44.802;10.332;2023-12-14T06:37:40;8.50;;;4.72;;
78122;SDS011;67376;44.802;10.332;2023-12-14T06:40:07;7.72;;;5.15;;
78122;SDS011;67376;44.802;10.332;2023-12-14T06:42:33;7.18;;;4.60;;
78122;SDS011;67376;44.802;10.332;2023-12-14T06:44:59;7.78;;;4.40;;
78122;SDS011;67376;44.802;10.332;2023-12-14T06:49:52;13.07;;;4.20;;
78122;SDS011;67376;44.802;10.332;2023-12-14T06:52:18;7.25;;;4.63;;
78122;SDS011;67376;44.802;10.332;2023-12-14T06:54:43;6.78;;;4.82;;
78122;SDS011;67376;44.802;10.332;2023-12-14T06:57:08;8.18;;;4.68;;
78122;SDS011;67376;44.802;10.332;2023-12-14T06:59:34;7.32;;;4.78;;
78122;SDS011;67376;44.802;10.332;2023-12-14T07:01:59;7.70;;;4.55;;
78122;SDS011;67376;44.802;10.332;2023-12-14T07:04:24;6.88;;;4.45;;
78122;SDS011;67376;44.802;10.332;2023-12-14T07:06:50;7.82;;;4.82;;
78122;SDS011;67376;44.802;10.332;2023-12-14T07:09:17;7.03;;;4.90;;
78122;SDS011;67376;44.802;10.332;2023-12-14T07:11:43;9.50;;;5.90;;
78122;SDS011;67376;44.802;10.332;2023-12-14T07:14:08;6.82;;;4.55;;
78122;SDS011;67376;44.802;10.332;2023-12-14T07:16:33;8.18;;;5.22;;
78122;SDS011;67376;44.802;10.332;2023-12-14T07:18:59;7.95;;;5.00;;
78122;SDS011;67376;44.802;10.332;2023-12-14T07:21:24;9.65;;;4.72;;
78122;SDS011;67376;44.802;10.332;2023-12-14T07:23:50;7.38;;;5.38;;
78122;SDS011;67376;44.802;10.332;2023-12-14T07:26:15;9.02;;;5.57;;
78122;SDS011;67376;44.802;10.332;2023-12-14T07:28:40;9.68;;;5.90;;
78122;SDS011;67376;44.802;10.332;2023-12-14T07:31:06;9.35;;;5.55;;
78122;SDS011;67376;44.802;10.332;2023-12-14T07:33:31;14.13;;;5.88;;
78122;SDS011;67376;44.802;10.332;2023-12-14T07:35:56;9.07;;;5.93;;
78122;SDS011;67376;44.802;10.332;2023-12-14T07:38:22;9.63;;;6.18;;
78122;SDS011;67376;44.802;10.332;2023-12-14T07:40:47;11.90;;;6.68;;
78122;SDS011;67376;44.802;10.332;2023-12-14T07:43:15;11.63;;;6.28;;
78122;SDS011;67376;44.802;10.332;2023-12-14T07:48:05;12.30;;;6.85;;
78122;SDS011;67376;44.802;10.332;2023-12-14T07:50:31;21.15;;;11.88;;
78122;SDS011;67376;44.802;10.332;2023-12-14T07:52:56;28.60;;;14.15;;
78122;SDS011;67376;44.802;10.332;2023-12-14T07:55:22;27.65;;;14.07;;
78122;SDS011;67376;44.802;10.332;2023-12-14T07:57:47;28.27;;;14.10;;
78122;SDS011;67376;44.802;10.332;2023-12-14T08:00:13;28.50;;;13.13;;
78122;SDS011;67376;44.802;10.332;2023-12-14T08:02:39;31.33;;;14.15;;
78122;SDS011;67376;44.802;10.332;2023-12-14T08:05:04;26.23;;;13.93;;
78122;SDS011;67376;44.802;10.332;2023-12-14T08:07:33;26.17;;;14.45;;
78122;SDS011;67376;44.802;10.332;2023-12-14T08:09:59;25.55;;;13.90;;
78122;SDS011;67376;44.802;10.332;2023-12-14T08:12:24;21.67;;;12.15;;
78122;SDS011;67376;44.802;10.332;2023-12-14T08:14:50;23.88;;;12.43;;
78122;SDS011;67376;44.802;10.332;2023-12-14T08:17:17;23.80;;;12.00;;
78122;SDS011;67376;44.802;10.332;2023-12-14T08:19:43;23.08;;;11.95;;
78122;SDS011;67376;44.802;10.332;2023-12-14T08:22:10;26.13;;;12.30;;
78122;SDS011;67376;44.802;10.332;2023-12-14T08:24:38;20.63;;;10.55;;
78122;SDS011;67376;44.802;10.332;2023-12-14T08:27:03;21.85;;;11.25;;
78122;SDS011;67376;44.802;10.332;2023-12-14T08:29:29;18.73;;;10.05;;
78122;SDS011;67376;44.802;10.332;2023-12-14T08:31:54;19.02;;;10.15;;
78122;SDS011;67376;44.802;10.332;2023-12-14T08:34:22;18.00;;;9.85;;
78122;SDS011;67376;44.802;10.332;2023-12-14T08:36:49;19.63;;;9.85;;
78122;SDS011;67376;44.802;10.332;2023-12-14T08:39:14;17.10;;;9.35;;
78122;SDS011;67376;44.802;10.332;2023-12-14T08:41:40;17.17;;;9.18;;
78122;SDS011;67376;44.802;10.332;2023-12-14T08:44:06;18.67;;;10.02;;
78122;SDS011;67376;44.802;10.332;2023-12-14T08:46:38;19.23;;;10.10;;
78122;SDS011;67376;44.802;10.332;2023-12-14T08:49:07;17.75;;;9.07;;
78122;SDS011;67376;44.802;10.332;2023-12-14T08:51:32;18.15;;;9.43;;
78122;SDS011;67376;44.802;10.332;2023-12-14T08:53:57;16.10;;;8.23;;
78122;SDS011;67376;44.802;10.332;2023-12-14T08:56:23;17.45;;;8.90;;
78122;SDS011;67376;44.802;10.332;2023-12-14T08:58:48;17.73;;;9.40;;
78122;SDS011;67376;44.802;10.332;2023-12-14T09:01:19;15.07;;;8.00;;
78122;SDS011;67376;44.802;10.332;2023-12-14T09:03:45;16.63;;;8.35;;
78122;SDS011;67376;44.802;10.332;2023-12-14T09:06:11;15.25;;;8.50;;
78122;SDS011;67376;44.802;10.332;2023-12-14T09:08:36;18.08;;;9.00;;
78122;SDS011;67376;44.802;10.332;2023-12-14T09:11:02;14.82;;;7.60;;
78122;SDS011;67376;44.802;10.332;2023-12-14T09:13:27;14.90;;;8.13;;
78122;SDS011;67376;44.802;10.332;2023-12-14T09:15:52;13.45;;;7.38;;
78122;SDS011;67376;44.802;10.332;2023-12-14T09:18:19;15.13;;;7.90;;
78122;SDS011;67376;44.802;10.332;2023-12-14T09:20:45;14.43;;;7.43;;
78122;SDS011;67376;44.802;10.332;2023-12-14T09:23:10;13.13;;;7.30;;
78122;SDS011;67376;44.802;10.332;2023-12-14T09:25:36;12.07;;;6.82;;
78122;SDS011;67376;44.802;10.332;2023-12-14T09:28:01;13.43;;;6.90;;
78122;SDS011;67376;44.802;10.332;2023-12-14T09:30:26;12.13;;;6.72;;
78122;SDS011;67376;44.802;10.332;2023-12-14T09:32:52;13.27;;;7.07;;
78122;SDS011;67376;44.802;10.332;2023-12-14T09:35:18;10.30;;;6.32;;
78122;SDS011;67376;44.802;10.332;2023-12-14T09:37:43;13.70;;;7.75;;
78122;SDS011;67376;44.802;10.332;2023-12-14T09:40:08;10.93;;;6.57;;
78122;SDS011;67376;44.802;10.332;2023-12-14T09:42:36;11.13;;;6.80;;
78122;SDS011;67376;44.802;10.332;2023-12-14T09:45:04;11.52;;;6.70;;
78122;SDS011;67376;44.802;10.332;2023-12-14T09:47:32;13.73;;;7.72;;
78122;SDS011;67376;44.802;10.332;2023-12-14T09:49:58;12.05;;;6.90;;
78122;SDS011;67376;44.802;10.332;2023-12-14T09:52:24;12.40;;;6.32;;
78122;SDS011;67376;44.802;10.332;2023-12-14T09:54:49;13.43;;;6.97;;
78122;SDS011;67376;44.802;10.332;2023-12-14T09:57:14;10.73;;;6.35;;
78122;SDS011;67376;44.802;10.332;2023-12-14T09:59:40;11.48;;;6.05;;
78122;SDS011;67376;44.802;10.332;2023-12-14T10:02:10;12.45;;;6.35;;
78122;SDS011;67376;44.802;10.332;2023-12-14T10:04:36;13.23;;;6.43;;
78122;SDS011;67376;44.802;10.332;2023-12-14T10:07:02;10.13;;;5.68;;
78122;SDS011;67376;44.802;10.332;2023-12-14T10:09:32;10.50;;;6.15;;
78122;SDS011;67376;44.802;10.332;2023-12-14T10:12:05;9.60;;;5.93;;
78122;SDS011;67376;44.802;10.332;2023-12-14T10:14:32;11.38;;;6.45;;
78122;SDS011;67376;44.802;10.332;2023-12-14T10:16:58;10.05;;;5.80;;
78122;SDS011;67376;44.802;10.332;2023-12-14T10:19:24;11.68;;;5.72;;
78122;SDS011;67376;44.802;10.332;2023-12-14T10:21:50;12.75;;;7.13;;
78122;SDS011;67376;44.802;10.332;2023-12-14T10:24:16;10.18;;;5.72;;
78122;SDS011;67376;44.802;10.332;2023-12-14T10:26:45;11.27;;;6.00;;
78122;SDS011;67376;44.802;10.332;2023-12-14T10:29:11;10.73;;;5.90;;
78122;SDS011;67376;44.802;10.332;2023-12-14T10:31:36;9.85;;;5.45;;
78122;SDS011;67376;44.802;10.332;2023-12-14T10:34:04;10.82;;;6.30;;
78122;SDS011;67376;44.802;10.332;2023-12-14T10:36:30;11.02;;;6.10;;
78122;SDS011;67376;44.802;10.332;2023-12-14T10:38:56;8.85;;;5.90;;
78122;SDS011;67376;44.802;10.332;2023-12-14T10:41:23;10.23;;;5.75;;
78122;SDS011;67376;44.802;10.332;2023-12-14T10:43:55;9.50;;;6.15;;
78122;SDS011;67376;44.802;10.332;2023-12-14T10:46:23;9.85;;;5.75;;
78122;SDS011;67376;44.802;10.332;2023-12-14T10:48:49;9.95;;;5.95;;
78122;SDS011;67376;44.802;10.332;2023-12-14T10:51:15;9.65;;;5.97;;
78122;SDS011;67376;44.802;10.332;2023-12-14T10:53:44;9.73;;;5.50;;
78122;SDS011;67376;44.802;10.332;2023-12-14T10:56:12;13.60;;;6.53;;
78122;SDS011;67376;44.802;10.332;2023-12-14T10:58:57;8.43;;;5.95;;
78122;SDS011;67376;44.802;10.332;2023-12-14T11:01:25;9.93;;;6.45;;
78122;SDS011;67376;44.802;10.332;2023-12-14T11:03:54;9.52;;;5.75;;
78122;SDS011;67376;44.802;10.332;2023-12-14T11:08:51;11.10;;;6.10;;
78122;SDS011;67376;44.802;10.332;2023-12-14T11:11:17;10.45;;;6.55;;
78122;SDS011;67376;44.802;10.332;2023-12-14T11:13:46;10.13;;;6.28;;
78122;SDS011;67376;44.802;10.332;2023-12-14T11:16:15;8.35;;;4.97;;
78122;SDS011;67376;44.802;10.332;2023-12-14T11:18:40;7.70;;;5.55;;
78122;SDS011;67376;44.802;10.332;2023-12-14T11:21:06;9.98;;;5.80;;
78122;SDS011;67376;44.802;10.332;2023-12-14T11:23:32;9.32;;;5.32;;
78122;SDS011;67376;44.802;10.332;2023-12-14T11:28:36;10.20;;;5.55;;
78122;SDS011;67376;44.802;10.332;2023-12-14T11:31:02;8.38;;;4.70;;
78122;SDS011;67376;44.802;10.332;2023-12-14T11:33:34;9.50;;;5.50;;
78122;SDS011;67376;44.802;10.332;2023-12-14T11:36:00;10.48;;;6.25;;
78122;SDS011;67376;44.802;10.332;2023-12-14T11:38:29;9.15;;;5.50;;
78122;SDS011;67376;44.802;10.332;2023-12-14T11:40:54;9.80;;;5.40;;
78122;SDS011;67376;44.802;10.332;2023-12-14T11:43:20;10.85;;;5.53;;
78122;SDS011;67376;44.802;10.332;2023-12-14T11:45:46;10.15;;;6.10;;
78122;SDS011;67376;44.802;10.332;2023-12-14T11:48:12;9.32;;;5.15;;
78122;SDS011;67376;44.802;10.332;2023-12-14T11:50:39;10.63;;;5.80;;
78122;SDS011;67376;44.802;10.332;2023-12-14T11:53:05;9.98;;;5.50;;
78122;SDS011;67376;44.802;10.332;2023-12-14T11:55:34;9.45;;;5.32;;
78122;SDS011;67376;44.802;10.332;2023-12-14T11:58:01;9.40;;;5.53;;
78122;SDS011;67376;44.802;10.332;2023-12-14T12:00:26;9.82;;;5.63;;
78122;SDS011;67376;44.802;10.332;2023-12-14T12:03:11;9.75;;;5.75;;
78122;SDS011;67376;44.802;10.332;2023-12-14T12:08:04;8.23;;;5.05;;
78122;SDS011;67376;44.802;10.332;2023-12-14T12:10:29;9.82;;;5.45;;
78122;SDS011;67376;44.802;10.332;2023-12-14T12:12:58;16.85;;;5.78;;
78122;SDS011;67376;44.802;10.332;2023-12-14T12:15:25;8.15;;;5.00;;
78122;SDS011;67376;44.802;10.332;2023-12-14T12:17:50;9.23;;;6.10;;
78122;SDS011;67376;44.802;10.332;2023-12-14T12:20:16;10.07;;;5.50;;
78122;SDS011;67376;44.802;10.332;2023-12-14T12:22:41;8.98;;;5.28;;
78122;SDS011;67376;44.802;10.332;2023-12-14T12:25:07;8.65;;;5.57;;
78122;SDS011;67376;44.802;10.332;2023-12-14T12:27:32;8.98;;;4.90;;
78122;SDS011;67376;44.802;10.332;2023-12-14T12:29:58;9.32;;;5.70;;
78122;SDS011;67376;44.802;10.332;2023-12-14T12:32:23;7.55;;;4.78;;
78122;SDS011;67376;44.802;10.332;2023-12-14T12:34:48;7.20;;;4.32;;
78122;SDS011;67376;44.802;10.332;2023-12-14T12:37:14;8.40;;;4.75;;
78122;SDS011;67376;44.802;10.332;2023-12-14T12:39:39;8.07;;;5.03;;
78122;SDS011;67376;44.802;10.332;2023-12-14T12:42:05;9.55;;;5.63;;
78122;SDS011;67376;44.802;10.332;2023-12-14T12:44:30;8.10;;;5.00;;
78122;SDS011;67376;44.802;10.332;2023-12-14T12:46:55;9.73;;;5.13;;
78122;SDS011;67376;44.802;10.332;2023-12-14T12:49:23;8.57;;;5.63;;
78122;SDS011;67376;44.802;10.332;2023-12-14T12:51:50;8.05;;;4.80;;
78122;SDS011;67376;44.802;10.332;2023-12-14T12:54:15;10.38;;;5.13;;
78122;SDS011;67376;44.802;10.332;2023-12-14T12:56:41;8.77;;;4.97;;
78122;SDS011;67376;44.802;10.332;2023-12-14T12:59:08;8.20;;;4.97;;
78122;SDS011;67376;44.802;10.332;2023-12-14T13:01:34;7.80;;;5.20;;
78122;SDS011;67376;44.802;10.332;2023-12-14T13:03:59;7.78;;;4.78;;
78122;SDS011;67376;44.802;10.332;2023-12-14T13:06:26;8.15;;;5.00;;
78122;SDS011;67376;44.802;10.332;2023-12-14T13:08:52;10.15;;;5.88;;
78122;SDS011;67376;44.802;10.332;2023-12-14T13:11:17;8.75;;;5.38;;
78122;SDS011;67376;44.802;10.332;2023-12-14T13:13:43;9.65;;;5.20;;
78122;SDS011;67376;44.802;10.332;2023-12-14T13:16:09;8.25;;;5.43;;
78122;SDS011;67376;44.802;10.332;2023-12-14T13:18:35;9.68;;;5.20;;
78122;SDS011;67376;44.802;10.332;2023-12-14T13:21:01;9.32;;;5.22;;
78122;SDS011;67376;44.802;10.332;2023-12-14T13:23:26;8.60;;;5.40;;
78122;SDS011;67376;44.802;10.332;2023-12-14T13:25:51;9.80;;;5.50;;
78122;SDS011;67376;44.802;10.332;2023-12-14T13:28:17;8.45;;;5.35;;
78122;SDS011;67376;44.802;10.332;2023-12-14T13:30:42;9.25;;;5.13;;
78122;SDS011;67376;44.802;10.332;2023-12-14T13:33:07;8.80;;;4.90;;
78122;SDS011;67376;44.802;10.332;2023-12-14T13:35:36;7.65;;;4.93;;
78122;SDS011;67376;44.802;10.332;2023-12-14T13:38:01;9.77;;;5.03;;
78122;SDS011;67376;44.802;10.332;2023-12-14T13:40:26;9.07;;;5.50;;
78122;SDS011;67376;44.802;10.332;2023-12-14T13:42:52;9.07;;;5.45;;
78122;SDS011;67376;44.802;10.332;2023-12-14T13:45:18;9.25;;;4.90;;
78122;SDS011;67376;44.802;10.332;2023-12-14T13:47:43;8.05;;;5.50;;
78122;SDS011;67376;44.802;10.332;2023-12-14T13:50:09;9.25;;;5.10;;
78122;SDS011;67376;44.802;10.332;2023-12-14T13:52:34;10.23;;;5.45;;
78122;SDS011;67376;44.802;10.332;2023-12-14T13:55:00;8.60;;;4.75;;
78122;SDS011;67376;44.802;10.332;2023-12-14T13:57:25;8.80;;;5.18;;
78122;SDS011;67376;44.802;10.332;2023-12-14T13:59:52;8.45;;;4.90;;
78122;SDS011;67376;44.802;10.332;2023-12-14T14:02:17;8.38;;;5.55;;
78122;SDS011;67376;44.802;10.332;2023-12-14T14:04:43;7.72;;;5.05;;
78122;SDS011;67376;44.802;10.332;2023-12-14T14:07:08;8.73;;;4.90;;
78122;SDS011;67376;44.802;10.332;2023-12-14T14:09:34;8.70;;;4.97;;
78122;SDS011;67376;44.802;10.332;2023-12-14T14:11:59;9.27;;;5.45;;
78122;SDS011;67376;44.802;10.332;2023-12-14T14:14:24;8.75;;;5.30;;
78122;SDS011;67376;44.802;10.332;2023-12-14T14:16:50;10.95;;;5.70;;
78122;SDS011;67376;44.802;10.332;2023-12-14T14:19:15;9.13;;;4.93;;
78122;SDS011;67376;44.802;10.332;2023-12-14T14:21:40;9.43;;;5.13;;
78122;SDS011;67376;44.802;10.332;2023-12-14T14:24:06;9.40;;;5.38;;
78122;SDS011;67376;44.802;10.332;2023-12-14T14:26:32;8.85;;;5.32;;
78122;SDS011;67376;44.802;10.332;2023-12-14T14:28:57;12.10;;;5.22;;
78122;SDS011;67376;44.802;10.332;2023-12-14T14:31:26;9.48;;;5.15;;
78122;SDS011;67376;44.802;10.332;2023-12-14T14:33:56;9.05;;;5.45;;
78122;SDS011;67376;44.802;10.332;2023-12-14T14:36:22;9.50;;;5.47;;